sensor_id;sensor_type;location;lat;lon;timestamp;P1;durP1;ratioP1;P2;durP2;ratioP2
46845;SDS011;33947;46.804;134.252;2023-02-01T00:00:10;60.92;;;26.17;;
46845;SDS011;33947;46.804;134.252;2023-02-01T00:03:17;62.20;;;22.95;;
46845;SDS011;33947;46.804;134.252;2023-02-01T00:06:21;84.30;;;29.88;;
46845;SDS011;33947;46.804;134.252;2023-02-01T00:09:27;196.77;;;56.28;;
46845;SDS011;33947;46.804;134.252;2023-02-01T00:12:35;67.65;;;26.63;;
46845;SDS011;33947;46.804;134.252;2023-02-01T00:15:39;100.53;;;32.25;;
46845;SDS011;33947;46.804;134.252;2023-02-01T00:18:48;41.95;;;17.40;;
46845;SDS011;33947;46.804;134.252;2023-02-01T00:21:56;57.58;;;19.83;;
46845;SDS011;33947;46.804;134.252;2023-02-01T00:24:59;46.25;;;20.45;;
46845;SDS011;33947;46.804;134.252;2023-02-01T00:28:05;55.33;;;20.27;;
46845;SDS011;33947;46.804;134.252;2023-02-01T00:31:13;42.47;;;17.95;;
46845;SDS011;33947;46.804;134.252;2023-02-01T00:37:52;79.55;;;31.15;;
46845;SDS011;33947;46.804;134.252;2023-02-01T00:41:04;68.78;;;26.02;;
46845;SDS011;33947;46.804;134.252;2023-02-01T00:44:10;54.97;;;24.23;;
46845;SDS011;33947;46.804;134.252;2023-02-01T00:47:17;81.38;;;29.40;;
46845;SDS011;33947;46.804;134.252;2023-02-01T00:50:26;77.93;;;26.13;;
46845;SDS011;33947;46.804;134.252;2023-02-01T00:53:33;74.85;;;25.45;;
46845;SDS011;33947;46.804;134.252;2023-02-01T00:56:39;56.10;;;20.98;;
46845;SDS011;33947;46.804;134.252;2023-02-01T00:59:45;66.18;;;25.58;;
46845;SDS011;33947;46.804;134.252;2023-02-01T01:02:49;41.72;;;17.38;;
46845;SDS011;33947;46.804;134.252;2023-02-01T01:05:57;74.78;;;27.95;;
46845;SDS011;33947;46.804;134.252;2023-02-01T01:09:04;42.95;;;17.67;;
46845;SDS011;33947;46.804;134.252;2023-02-01T01:12:12;55.42;;;20.17;;
46845;SDS011;33947;46.804;134.252;2023-02-01T01:15:18;38.92;;;16.52;;
46845;SDS011;33947;46.804;134.252;2023-02-01T01:18:24;53.03;;;21.40;;
46845;SDS011;33947;46.804;134.252;2023-02-01T01:21:29;52.15;;;22.40;;
46845;SDS011;33947;46.804;134.252;2023-02-01T01:24:37;66.20;;;25.63;;
46845;SDS011;33947;46.804;134.252;2023-02-01T01:27:41;137.77;;;39.53;;
46845;SDS011;33947;46.804;134.252;2023-02-01T01:30:49;62.42;;;24.00;;
46845;SDS011;33947;46.804;134.252;2023-02-01T01:33:56;88.00;;;29.35;;
46845;SDS011;33947;46.804;134.252;2023-02-01T01:37:05;69.28;;;25.88;;
46845;SDS011;33947;46.804;134.252;2023-02-01T01:40:11;46.80;;;19.92;;
46845;SDS011;33947;46.804;134.252;2023-02-01T01:43:16;53.13;;;22.25;;
46845;SDS011;33947;46.804;134.252;2023-02-01T01:46:32;89.60;;;31.95;;
46845;SDS011;33947;46.804;134.252;2023-02-01T01:49:47;66.55;;;26.08;;
46845;SDS011;33947;46.804;134.252;2023-02-01T01:52:55;76.03;;;28.50;;
46845;SDS011;33947;46.804;134.252;2023-02-01T01:56:02;71.07;;;25.95;;
46845;SDS011;33947;46.804;134.252;2023-02-01T01:59:09;65.07;;;24.63;;
46845;SDS011;33947;46.804;134.252;2023-02-01T02:02:16;40.47;;;17.35;;
46845;SDS011;33947;46.804;134.252;2023-02-01T02:05:22;53.25;;;19.48;;
46845;SDS011;33947;46.804;134.252;2023-02-01T02:08:30;35.40;;;16.33;;
46845;SDS011;33947;46.804;134.252;2023-02-01T02:11:35;78.78;;;26.33;;
46845;SDS011;33947;46.804;134.252;2023-02-01T02:14:41;38.72;;;16.85;;
46845;SDS011;33947;46.804;134.252;2023-02-01T02:32:04;43.13;;;17.67;;
46845;SDS011;33947;46.804;134.252;2023-02-01T02:42:22;52.13;;;18.50;;
46845;SDS011;33947;46.804;134.252;2023-02-01T02:57:17;56.47;;;19.73;;
46845;SDS011;33947;46.804;134.252;2023-02-01T03:00:46;75.50;;;26.33;;
46845;SDS011;33947;46.804;134.252;2023-02-01T03:04:12;85.93;;;33.95;;
46845;SDS011;33947;46.804;134.252;2023-02-01T03:11:09;41.35;;;18.05;;
46845;SDS011;33947;46.804;134.252;2023-02-01T03:14:18;50.28;;;18.23;;
46845;SDS011;33947;46.804;134.252;2023-02-01T03:17:29;55.95;;;23.88;;
46845;SDS011;33947;46.804;134.252;2023-02-01T03:20:40;47.55;;;20.75;;
46845;SDS011;33947;46.804;134.252;2023-02-01T03:23:48;63.75;;;23.30;;
46845;SDS011;33947;46.804;134.252;2023-02-01T03:26:57;45.85;;;18.90;;
46845;SDS011;33947;46.804;134.252;2023-02-01T03:30:19;130.70;;;37.85;;
46845;SDS011;33947;46.804;134.252;2023-02-01T03:33:30;45.47;;;19.02;;
46845;SDS011;33947;46.804;134.252;2023-02-01T03:36:45;45.92;;;19.25;;
46845;SDS011;33947;46.804;134.252;2023-02-01T03:43:13;40.72;;;17.88;;
46845;SDS011;33947;46.804;134.252;2023-02-01T03:50:09;49.97;;;19.13;;
46845;SDS011;33947;46.804;134.252;2023-02-01T03:53:20;45.70;;;18.63;;
46845;SDS011;33947;46.804;134.252;2023-02-01T03:56:30;44.60;;;17.88;;
46845;SDS011;33947;46.804;134.252;2023-02-01T03:59:41;41.47;;;19.08;;
46845;SDS011;33947;46.804;134.252;2023-02-01T04:02:52;52.72;;;20.95;;
46845;SDS011;33947;46.804;134.252;2023-02-01T04:05:59;41.70;;;17.13;;
46845;SDS011;33947;46.804;134.252;2023-02-01T04:09:05;71.68;;;21.83;;
46845;SDS011;33947;46.804;134.252;2023-02-01T04:12:11;42.42;;;15.60;;
46845;SDS011;33947;46.804;134.252;2023-02-01T04:15:18;38.55;;;17.38;;
46845;SDS011;33947;46.804;134.252;2023-02-01T04:21:29;44.22;;;16.55;;
46845;SDS011;33947;46.804;134.252;2023-02-01T04:24:35;40.15;;;17.73;;
46845;SDS011;33947;46.804;134.252;2023-02-01T04:27:40;53.35;;;20.15;;
46845;SDS011;33947;46.804;134.252;2023-02-01T04:30:47;27.77;;;13.93;;
46845;SDS011;33947;46.804;134.252;2023-02-01T04:33:54;41.15;;;16.95;;
46845;SDS011;33947;46.804;134.252;2023-02-01T04:37:02;41.00;;;15.60;;
46845;SDS011;33947;46.804;134.252;2023-02-01T04:40:08;35.38;;;15.10;;
46845;SDS011;33947;46.804;134.252;2023-02-01T04:43:15;43.03;;;16.70;;
46845;SDS011;33947;46.804;134.252;2023-02-01T04:46:22;38.33;;;17.35;;
46845;SDS011;33947;46.804;134.252;2023-02-01T04:49:28;31.08;;;14.70;;
46845;SDS011;33947;46.804;134.252;2023-02-01T04:52:34;41.40;;;16.27;;
46845;SDS011;33947;46.804;134.252;2023-02-01T04:55:40;36.28;;;16.65;;
46845;SDS011;33947;46.804;134.252;2023-02-01T04:58:47;37.33;;;16.40;;
46845;SDS011;33947;46.804;134.252;2023-02-01T05:04:58;85.97;;;29.05;;
46845;SDS011;33947;46.804;134.252;2023-02-01T05:08:05;58.60;;;25.20;;
46845;SDS011;33947;46.804;134.252;2023-02-01T05:11:11;67.13;;;26.45;;
46845;SDS011;33947;46.804;134.252;2023-02-01T05:14:35;60.63;;;27.73;;
46845;SDS011;33947;46.804;134.252;2023-02-01T05:17:43;42.05;;;17.25;;
46845;SDS011;33947;46.804;134.252;2023-02-01T05:20:48;39.58;;;15.98;;
46845;SDS011;33947;46.804;134.252;2023-02-01T05:23:55;44.30;;;21.50;;
46845;SDS011;33947;46.804;134.252;2023-02-01T05:27:24;346.95;;;99.55;;
46845;SDS011;33947;46.804;134.252;2023-02-01T05:30:32;44.20;;;19.05;;
46845;SDS011;33947;46.804;134.252;2023-02-01T05:33:38;37.05;;;16.08;;
46845;SDS011;33947;46.804;134.252;2023-02-01T05:36:46;30.60;;;14.25;;
46845;SDS011;33947;46.804;134.252;2023-02-01T05:39:51;29.27;;;14.15;;
46845;SDS011;33947;46.804;134.252;2023-02-01T05:42:58;31.52;;;13.13;;
46845;SDS011;33947;46.804;134.252;2023-02-01T05:49:09;31.20;;;13.90;;
46845;SDS011;33947;46.804;134.252;2023-02-01T05:55:22;37.65;;;14.68;;
46845;SDS011;33947;46.804;134.252;2023-02-01T05:58:34;40.75;;;16.10;;
46845;SDS011;33947;46.804;134.252;2023-02-01T06:01:41;55.40;;;22.67;;
46845;SDS011;33947;46.804;134.252;2023-02-01T06:04:45;38.05;;;18.35;;
46845;SDS011;33947;46.804;134.252;2023-02-01T06:07:51;32.90;;;17.75;;
46845;SDS011;33947;46.804;134.252;2023-02-01T06:11:03;35.70;;;16.70;;
46845;SDS011;33947;46.804;134.252;2023-02-01T06:14:08;26.45;;;14.10;;
46845;SDS011;33947;46.804;134.252;2023-02-01T06:17:15;34.13;;;14.38;;
46845;SDS011;33947;46.804;134.252;2023-02-01T06:20:22;38.00;;;18.17;;
46845;SDS011;33947;46.804;134.252;2023-02-01T06:23:29;44.17;;;21.67;;
46845;SDS011;33947;46.804;134.252;2023-02-01T06:26:36;39.15;;;15.30;;
46845;SDS011;33947;46.804;134.252;2023-02-01T06:29:43;40.67;;;17.85;;
46845;SDS011;33947;46.804;134.252;2023-02-01T06:32:50;34.72;;;14.10;;
46845;SDS011;33947;46.804;134.252;2023-02-01T06:35:59;29.67;;;13.60;;
46845;SDS011;33947;46.804;134.252;2023-02-01T06:39:07;28.65;;;12.13;;
46845;SDS011;33947;46.804;134.252;2023-02-01T06:45:19;22.98;;;11.43;;
46845;SDS011;33947;46.804;134.252;2023-02-01T06:48:24;24.17;;;12.35;;
46845;SDS011;33947;46.804;134.252;2023-02-01T06:51:33;44.40;;;14.73;;
46845;SDS011;33947;46.804;134.252;2023-02-01T06:54:37;44.10;;;20.88;;
46845;SDS011;33947;46.804;134.252;2023-02-01T07:01:23;249.50;;;74.40;;
46845;SDS011;33947;46.804;134.252;2023-02-01T07:04:27;280.70;;;79.75;;
46845;SDS011;33947;46.804;134.252;2023-02-01T07:13:47;292.95;;;79.30;;
46845;SDS011;33947;46.804;134.252;2023-02-01T07:16:51;214.52;;;60.40;;
46845;SDS011;33947;46.804;134.252;2023-02-01T07:23:12;56.72;;;22.52;;
46845;SDS011;33947;46.804;134.252;2023-02-01T07:26:17;64.05;;;26.02;;
46845;SDS011;33947;46.804;134.252;2023-02-01T07:29:24;43.40;;;16.95;;
46845;SDS011;33947;46.804;134.252;2023-02-01T07:32:30;71.72;;;29.55;;
46845;SDS011;33947;46.804;134.252;2023-02-01T07:35:36;58.65;;;27.02;;
46845;SDS011;33947;46.804;134.252;2023-02-01T07:44:53;74.88;;;24.38;;
46845;SDS011;33947;46.804;134.252;2023-02-01T07:48:00;52.35;;;21.50;;
46845;SDS011;33947;46.804;134.252;2023-02-01T07:51:09;45.78;;;17.10;;
46845;SDS011;33947;46.804;134.252;2023-02-01T07:54:16;43.90;;;19.27;;
46845;SDS011;33947;46.804;134.252;2023-02-01T07:57:24;35.10;;;13.65;;
46845;SDS011;33947;46.804;134.252;2023-02-01T08:04:13;45.60;;;16.30;;
46845;SDS011;33947;46.804;134.252;2023-02-01T08:07:18;36.60;;;14.40;;
46845;SDS011;33947;46.804;134.252;2023-02-01T08:13:35;32.00;;;13.27;;
46845;SDS011;33947;46.804;134.252;2023-02-01T08:16:41;55.08;;;16.58;;
46845;SDS011;33947;46.804;134.252;2023-02-01T08:19:45;43.47;;;16.75;;
46845;SDS011;33947;46.804;134.252;2023-02-01T08:22:54;56.83;;;18.90;;
46845;SDS011;33947;46.804;134.252;2023-02-01T08:26:10;44.33;;;18.50;;
46845;SDS011;33947;46.804;134.252;2023-02-01T08:29:24;52.78;;;19.63;;
46845;SDS011;33947;46.804;134.252;2023-02-01T08:32:30;54.75;;;21.25;;
46845;SDS011;33947;46.804;134.252;2023-02-01T08:35:38;59.55;;;19.98;;
46845;SDS011;33947;46.804;134.252;2023-02-01T08:38:47;64.90;;;24.88;;
46845;SDS011;33947;46.804;134.252;2023-02-01T08:41:54;71.80;;;28.67;;
46845;SDS011;33947;46.804;134.252;2023-02-01T08:45:19;59.03;;;25.25;;
46845;SDS011;33947;46.804;134.252;2023-02-01T08:48:28;68.43;;;25.60;;
46845;SDS011;33947;46.804;134.252;2023-02-01T08:51:34;39.10;;;17.23;;
46845;SDS011;33947;46.804;134.252;2023-02-01T08:54:40;131.57;;;33.40;;
46845;SDS011;33947;46.804;134.252;2023-02-01T08:57:47;175.52;;;42.63;;
46845;SDS011;33947;46.804;134.252;2023-02-01T09:00:53;131.93;;;34.58;;
46845;SDS011;33947;46.804;134.252;2023-02-01T09:03:57;144.65;;;39.30;;
46845;SDS011;33947;46.804;134.252;2023-02-01T09:07:05;66.40;;;21.67;;
46845;SDS011;33947;46.804;134.252;2023-02-01T09:10:09;112.43;;;30.73;;
46845;SDS011;33947;46.804;134.252;2023-02-01T09:13:17;52.80;;;17.80;;
46845;SDS011;33947;46.804;134.252;2023-02-01T09:16:23;53.42;;;16.40;;
46845;SDS011;33947;46.804;134.252;2023-02-01T09:19:31;30.70;;;12.50;;
46845;SDS011;33947;46.804;134.252;2023-02-01T09:22:38;28.77;;;12.15;;
46845;SDS011;33947;46.804;134.252;2023-02-01T09:25:43;33.85;;;14.10;;
46845;SDS011;33947;46.804;134.252;2023-02-01T09:28:52;21.60;;;9.75;;
46845;SDS011;33947;46.804;134.252;2023-02-01T09:31:59;23.33;;;10.18;;
46845;SDS011;33947;46.804;134.252;2023-02-01T09:35:08;56.40;;;20.77;;
46845;SDS011;33947;46.804;134.252;2023-02-01T09:38:14;29.42;;;11.38;;
46845;SDS011;33947;46.804;134.252;2023-02-01T09:41:32;19.30;;;9.27;;
46845;SDS011;33947;46.804;134.252;2023-02-01T09:48:24;14.00;;;6.65;;
46845;SDS011;33947;46.804;134.252;2023-02-01T09:51:38;17.30;;;6.80;;
46845;SDS011;33947;46.804;134.252;2023-02-01T09:54:59;14.35;;;5.85;;
46845;SDS011;33947;46.804;134.252;2023-02-01T09:58:30;19.58;;;8.15;;
46845;SDS011;33947;46.804;134.252;2023-02-01T10:01:39;18.02;;;11.57;;
46845;SDS011;33947;46.804;134.252;2023-02-01T10:04:47;24.95;;;11.32;;
46845;SDS011;33947;46.804;134.252;2023-02-01T10:08:01;44.60;;;17.50;;
46845;SDS011;33947;46.804;134.252;2023-02-01T10:11:25;86.88;;;26.08;;
46845;SDS011;33947;46.804;134.252;2023-02-01T10:28:42;236.60;;;70.13;;
46845;SDS011;33947;46.804;134.252;2023-02-01T10:31:51;229.98;;;69.50;;
46845;SDS011;33947;46.804;134.252;2023-02-01T10:35:01;187.50;;;61.92;;
46845;SDS011;33947;46.804;134.252;2023-02-01T10:38:29;209.68;;;60.15;;
46845;SDS011;33947;46.804;134.252;2023-02-01T10:41:38;187.68;;;57.95;;
46845;SDS011;33947;46.804;134.252;2023-02-01T10:44:45;198.05;;;59.13;;
46845;SDS011;33947;46.804;134.252;2023-02-01T10:47:53;246.60;;;66.03;;
46845;SDS011;33947;46.804;134.252;2023-02-01T10:57:48;160.18;;;46.90;;
46845;SDS011;33947;46.804;134.252;2023-02-01T11:01:04;124.05;;;42.35;;
46845;SDS011;33947;46.804;134.252;2023-02-01T11:04:15;116.97;;;40.45;;
46845;SDS011;33947;46.804;134.252;2023-02-01T11:07:25;118.63;;;40.22;;
46845;SDS011;33947;46.804;134.252;2023-02-01T11:10:39;96.43;;;36.25;;
46845;SDS011;33947;46.804;134.252;2023-02-01T11:23:43;104.20;;;35.13;;
46845;SDS011;33947;46.804;134.252;2023-02-01T11:26:53;97.55;;;35.22;;
46845;SDS011;33947;46.804;134.252;2023-02-01T11:30:02;117.80;;;42.75;;
46845;SDS011;33947;46.804;134.252;2023-02-01T11:33:12;110.07;;;38.80;;
46845;SDS011;33947;46.804;134.252;2023-02-01T11:36:28;145.27;;;47.83;;
46845;SDS011;33947;46.804;134.252;2023-02-01T11:39:37;154.50;;;49.50;;
46845;SDS011;33947;46.804;134.252;2023-02-01T11:42:57;154.98;;;49.25;;
46845;SDS011;33947;46.804;134.252;2023-02-01T11:46:08;158.20;;;54.22;;
46845;SDS011;33947;46.804;134.252;2023-02-01T12:10:01;308.98;;;99.65;;
46845;SDS011;33947;46.804;134.252;2023-02-01T12:16:43;262.25;;;83.05;;
46845;SDS011;33947;46.804;134.252;2023-02-01T12:23:40;218.52;;;71.93;;
46845;SDS011;33947;46.804;134.252;2023-02-01T12:43:58;150.65;;;47.90;;
46845;SDS011;33947;46.804;134.252;2023-02-01T12:47:17;162.00;;;45.78;;
46845;SDS011;33947;46.804;134.252;2023-02-01T12:51:15;132.65;;;43.72;;
46845;SDS011;33947;46.804;134.252;2023-02-01T12:54:24;97.50;;;34.30;;
46845;SDS011;33947;46.804;134.252;2023-02-01T12:57:45;49.95;;;17.08;;
46845;SDS011;33947;46.804;134.252;2023-02-01T13:01:14;226.88;;;62.58;;
46845;SDS011;33947;46.804;134.252;2023-02-01T13:08:06;31.17;;;12.35;;
46845;SDS011;33947;46.804;134.252;2023-02-01T13:11:24;24.02;;;7.97;;
46845;SDS011;33947;46.804;134.252;2023-02-01T13:14:54;30.52;;;9.43;;
46845;SDS011;33947;46.804;134.252;2023-02-01T13:18:26;40.42;;;15.52;;
46845;SDS011;33947;46.804;134.252;2023-02-01T13:21:41;96.97;;;29.70;;
46845;SDS011;33947;46.804;134.252;2023-02-01T13:24:56;35.80;;;11.70;;
46845;SDS011;33947;46.804;134.252;2023-02-01T13:28:12;56.92;;;11.20;;
46845;SDS011;33947;46.804;134.252;2023-02-01T13:41:42;9.65;;;5.50;;
46845;SDS011;33947;46.804;134.252;2023-02-01T13:45:01;10.05;;;5.30;;
46845;SDS011;33947;46.804;134.252;2023-02-01T13:48:14;50.60;;;13.93;;
46845;SDS011;33947;46.804;134.252;2023-02-01T13:51:35;31.15;;;10.15;;
46845;SDS011;33947;46.804;134.252;2023-02-01T13:55:00;21.67;;;7.65;;
46845;SDS011;33947;46.804;134.252;2023-02-01T13:58:28;16.40;;;6.15;;
46845;SDS011;33947;46.804;134.252;2023-02-01T14:01:39;9.18;;;4.03;;
46845;SDS011;33947;46.804;134.252;2023-02-01T14:04:46;96.95;;;19.77;;
46845;SDS011;33947;46.804;134.252;2023-02-01T14:11:32;14.98;;;6.00;;
46845;SDS011;33947;46.804;134.252;2023-02-01T14:14:43;13.45;;;5.88;;
46845;SDS011;33947;46.804;134.252;2023-02-01T14:17:48;7.53;;;4.82;;
46845;SDS011;33947;46.804;134.252;2023-02-01T14:21:10;7.47;;;4.80;;
46845;SDS011;33947;46.804;134.252;2023-02-01T14:24:28;11.98;;;4.78;;
46845;SDS011;33947;46.804;134.252;2023-02-01T14:27:38;17.08;;;9.52;;
46845;SDS011;33947;46.804;134.252;2023-02-01T14:30:42;59.60;;;20.27;;
46845;SDS011;33947;46.804;134.252;2023-02-01T14:33:54;12.07;;;5.97;;
46845;SDS011;33947;46.804;134.252;2023-02-01T14:37:05;287.13;;;125.78;;
46845;SDS011;33947;46.804;134.252;2023-02-01T14:53:40;12.73;;;5.77;;
46845;SDS011;33947;46.804;134.252;2023-02-01T14:56:48;10.73;;;5.15;;
46845;SDS011;33947;46.804;134.252;2023-02-01T15:00:07;13.13;;;5.65;;
46845;SDS011;33947;46.804;134.252;2023-02-01T15:09:53;17.80;;;7.00;;
46845;SDS011;33947;46.804;134.252;2023-02-01T15:13:05;22.58;;;7.95;;
46845;SDS011;33947;46.804;134.252;2023-02-01T15:16:13;17.98;;;7.53;;
46845;SDS011;33947;46.804;134.252;2023-02-01T15:19:20;19.80;;;7.43;;
46845;SDS011;33947;46.804;134.252;2023-02-01T15:26:23;23.73;;;9.45;;
46845;SDS011;33947;46.804;134.252;2023-02-01T15:29:30;75.25;;;23.77;;
46845;SDS011;33947;46.804;134.252;2023-02-01T15:32:39;18.73;;;7.32;;
46845;SDS011;33947;46.804;134.252;2023-02-01T15:35:49;16.05;;;7.03;;
46845;SDS011;33947;46.804;134.252;2023-02-01T15:42:34;18.10;;;10.13;;
46845;SDS011;33947;46.804;134.252;2023-02-01T15:45:43;205.15;;;60.30;;
46845;SDS011;33947;46.804;134.252;2023-02-01T15:48:51;31.65;;;11.35;;
46845;SDS011;33947;46.804;134.252;2023-02-01T15:52:01;21.88;;;9.25;;
46845;SDS011;33947;46.804;134.252;2023-02-01T15:55:20;43.15;;;14.77;;
46845;SDS011;33947;46.804;134.252;2023-02-01T15:58:45;24.65;;;7.03;;
46845;SDS011;33947;46.804;134.252;2023-02-01T16:01:55;8.85;;;4.03;;
46845;SDS011;33947;46.804;134.252;2023-02-01T16:05:01;8.05;;;4.13;;
46845;SDS011;33947;46.804;134.252;2023-02-01T16:08:24;10.27;;;4.93;;
46845;SDS011;33947;46.804;134.252;2023-02-01T16:11:32;10.95;;;5.85;;
46845;SDS011;33947;46.804;134.252;2023-02-01T16:14:59;14.10;;;6.82;;
46845;SDS011;33947;46.804;134.252;2023-02-01T16:18:05;20.95;;;7.75;;
46845;SDS011;33947;46.804;134.252;2023-02-01T16:21:15;12.48;;;6.15;;
46845;SDS011;33947;46.804;134.252;2023-02-01T16:27:37;7.40;;;3.42;;
46845;SDS011;33947;46.804;134.252;2023-02-01T16:30:43;4.65;;;2.90;;
46845;SDS011;33947;46.804;134.252;2023-02-01T16:33:50;5.75;;;3.25;;
46845;SDS011;33947;46.804;134.252;2023-02-01T16:36:58;8.95;;;3.45;;
46845;SDS011;33947;46.804;134.252;2023-02-01T16:40:08;15.35;;;5.15;;
46845;SDS011;33947;46.804;134.252;2023-02-01T16:43:20;8.13;;;4.18;;
46845;SDS011;33947;46.804;134.252;2023-02-01T16:46:28;12.07;;;3.65;;
46845;SDS011;33947;46.804;134.252;2023-02-01T16:49:40;8.35;;;3.92;;
46845;SDS011;33947;46.804;134.252;2023-02-01T16:52:49;18.50;;;5.57;;
46845;SDS011;33947;46.804;134.252;2023-02-01T16:55:57;11.95;;;5.43;;
46845;SDS011;33947;46.804;134.252;2023-02-01T16:59:03;15.55;;;8.35;;
46845;SDS011;33947;46.804;134.252;2023-02-01T17:02:12;29.25;;;12.70;;
46845;SDS011;33947;46.804;134.252;2023-02-01T17:05:20;14.40;;;7.20;;
46845;SDS011;33947;46.804;134.252;2023-02-01T17:08:34;15.75;;;6.30;;
46845;SDS011;33947;46.804;134.252;2023-02-01T17:11:42;13.65;;;5.90;;
46845;SDS011;33947;46.804;134.252;2023-02-01T17:14:48;15.48;;;6.75;;
46845;SDS011;33947;46.804;134.252;2023-02-01T17:17:55;19.50;;;6.60;;
46845;SDS011;33947;46.804;134.252;2023-02-01T17:21:02;56.28;;;13.15;;
46845;SDS011;33947;46.804;134.252;2023-02-01T17:24:14;18.63;;;8.18;;
46845;SDS011;33947;46.804;134.252;2023-02-01T17:27:20;23.38;;;7.88;;
46845;SDS011;33947;46.804;134.252;2023-02-01T17:30:25;19.42;;;10.38;;
46845;SDS011;33947;46.804;134.252;2023-02-01T17:33:32;17.98;;;8.38;;
46845;SDS011;33947;46.804;134.252;2023-02-01T17:36:44;25.90;;;8.98;;
46845;SDS011;33947;46.804;134.252;2023-02-01T17:39:51;44.72;;;12.98;;
46845;SDS011;33947;46.804;134.252;2023-02-01T17:43:00;18.77;;;8.35;;
46845;SDS011;33947;46.804;134.252;2023-02-01T17:46:13;10.10;;;6.30;;
46845;SDS011;33947;46.804;134.252;2023-02-01T17:49:20;24.27;;;8.13;;
46845;SDS011;33947;46.804;134.252;2023-02-01T17:52:26;18.70;;;8.02;;
46845;SDS011;33947;46.804;134.252;2023-02-01T17:55:35;20.75;;;8.52;;
46845;SDS011;33947;46.804;134.252;2023-02-01T17:58:42;20.90;;;10.10;;
46845;SDS011;33947;46.804;134.252;2023-02-01T18:01:47;27.77;;;11.40;;
46845;SDS011;33947;46.804;134.252;2023-02-01T18:04:56;31.38;;;10.82;;
46845;SDS011;33947;46.804;134.252;2023-02-01T18:08:01;71.35;;;20.88;;
46845;SDS011;33947;46.804;134.252;2023-02-01T18:11:18;43.55;;;18.58;;
46845;SDS011;33947;46.804;134.252;2023-02-01T18:14:25;56.97;;;18.85;;
46845;SDS011;33947;46.804;134.252;2023-02-01T18:17:31;95.93;;;28.13;;
46845;SDS011;33947;46.804;134.252;2023-02-01T18:20:38;85.53;;;21.30;;
46845;SDS011;33947;46.804;134.252;2023-02-01T18:23:47;47.45;;;16.92;;
46845;SDS011;33947;46.804;134.252;2023-02-01T18:26:53;77.70;;;23.00;;
46845;SDS011;33947;46.804;134.252;2023-02-01T18:29:59;67.22;;;19.25;;
46845;SDS011;33947;46.804;134.252;2023-02-01T18:36:11;48.75;;;18.17;;
46845;SDS011;33947;46.804;134.252;2023-02-01T18:39:17;43.45;;;15.43;;
46845;SDS011;33947;46.804;134.252;2023-02-01T18:42:23;59.80;;;20.60;;
46845;SDS011;33947;46.804;134.252;2023-02-01T18:48:41;88.47;;;23.70;;
46845;SDS011;33947;46.804;134.252;2023-02-01T18:51:50;87.80;;;24.42;;
46845;SDS011;33947;46.804;134.252;2023-02-01T18:54:57;44.50;;;16.88;;
46845;SDS011;33947;46.804;134.252;2023-02-01T18:58:05;85.90;;;26.02;;
46845;SDS011;33947;46.804;134.252;2023-02-01T19:01:18;53.28;;;22.05;;
46845;SDS011;33947;46.804;134.252;2023-02-01T19:04:28;45.58;;;18.35;;
46845;SDS011;33947;46.804;134.252;2023-02-01T19:07:35;48.95;;;15.13;;
46845;SDS011;33947;46.804;134.252;2023-02-01T19:10:41;31.65;;;13.70;;
46845;SDS011;33947;46.804;134.252;2023-02-01T19:13:48;43.13;;;15.77;;
46845;SDS011;33947;46.804;134.252;2023-02-01T19:16:55;39.72;;;15.05;;
46845;SDS011;33947;46.804;134.252;2023-02-01T19:20:01;27.10;;;12.13;;
46845;SDS011;33947;46.804;134.252;2023-02-01T19:23:14;28.55;;;13.18;;
46845;SDS011;33947;46.804;134.252;2023-02-01T19:26:19;42.80;;;15.93;;
46845;SDS011;33947;46.804;134.252;2023-02-01T19:29:25;35.35;;;15.48;;
46845;SDS011;33947;46.804;134.252;2023-02-01T19:32:29;39.80;;;13.38;;
46845;SDS011;33947;46.804;134.252;2023-02-01T19:35:34;41.00;;;15.20;;
46845;SDS011;33947;46.804;134.252;2023-02-01T19:38:40;36.17;;;13.82;;
46845;SDS011;33947;46.804;134.252;2023-02-01T19:41:46;33.05;;;12.50;;
46845;SDS011;33947;46.804;134.252;2023-02-01T19:44:52;11.77;;;5.90;;
46845;SDS011;33947;46.804;134.252;2023-02-01T19:47:59;28.52;;;11.88;;
46845;SDS011;33947;46.804;134.252;2023-02-01T19:51:07;20.55;;;10.20;;
46845;SDS011;33947;46.804;134.252;2023-02-01T19:54:14;19.30;;;9.55;;
46845;SDS011;33947;46.804;134.252;2023-02-01T19:57:19;26.00;;;10.55;;
46845;SDS011;33947;46.804;134.252;2023-02-01T20:00:26;26.40;;;11.07;;
46845;SDS011;33947;46.804;134.252;2023-02-01T20:03:31;21.27;;;9.85;;
46845;SDS011;33947;46.804;134.252;2023-02-01T20:06:38;39.97;;;13.98;;
46845;SDS011;33947;46.804;134.252;2023-02-01T20:09:45;21.40;;;12.60;;
46845;SDS011;33947;46.804;134.252;2023-02-01T20:12:51;37.08;;;14.18;;
46845;SDS011;33947;46.804;134.252;2023-02-01T20:15:57;45.90;;;18.40;;
46845;SDS011;33947;46.804;134.252;2023-02-01T20:19:04;33.85;;;12.05;;
46845;SDS011;33947;46.804;134.252;2023-02-01T20:22:10;47.25;;;17.27;;
46845;SDS011;33947;46.804;134.252;2023-02-01T20:25:17;58.42;;;21.20;;
46845;SDS011;33947;46.804;134.252;2023-02-01T20:28:22;38.78;;;10.80;;
46845;SDS011;33947;46.804;134.252;2023-02-01T20:31:28;39.15;;;16.45;;
46845;SDS011;33947;46.804;134.252;2023-02-01T20:34:34;41.22;;;17.27;;
46845;SDS011;33947;46.804;134.252;2023-02-01T20:37:39;90.97;;;30.77;;
46845;SDS011;33947;46.804;134.252;2023-02-01T20:40:44;61.88;;;22.08;;
46845;SDS011;33947;46.804;134.252;2023-02-01T20:46:56;46.47;;;16.23;;
46845;SDS011;33947;46.804;134.252;2023-02-01T20:50:03;54.00;;;23.52;;
46845;SDS011;33947;46.804;134.252;2023-02-01T20:53:08;13.68;;;9.45;;
46845;SDS011;33947;46.804;134.252;2023-02-01T20:56:26;50.22;;;22.73;;
46845;SDS011;33947;46.804;134.252;2023-02-01T20:59:32;9.00;;;7.88;;
46845;SDS011;33947;46.804;134.252;2023-02-01T21:02:38;29.98;;;14.20;;
46845;SDS011;33947;46.804;134.252;2023-02-01T21:05:48;41.95;;;17.88;;
46845;SDS011;33947;46.804;134.252;2023-02-01T21:08:59;14.67;;;10.87;;
46845;SDS011;33947;46.804;134.252;2023-02-01T21:12:04;121.85;;;42.92;;
46845;SDS011;33947;46.804;134.252;2023-02-01T21:15:11;69.22;;;24.15;;
46845;SDS011;33947;46.804;134.252;2023-02-01T21:18:17;92.65;;;30.80;;
46845;SDS011;33947;46.804;134.252;2023-02-01T21:21:24;85.13;;;33.67;;
46845;SDS011;33947;46.804;134.252;2023-02-01T21:24:29;154.38;;;48.72;;
46845;SDS011;33947;46.804;134.252;2023-02-01T21:27:36;81.72;;;31.98;;
46845;SDS011;33947;46.804;134.252;2023-02-01T21:30:42;77.00;;;29.45;;
46845;SDS011;33947;46.804;134.252;2023-02-01T21:33:48;463.15;;;159.20;;
46845;SDS011;33947;46.804;134.252;2023-02-01T21:36:54;552.63;;;187.63;;
46845;SDS011;33947;46.804;134.252;2023-02-01T21:39:59;472.67;;;163.02;;
46845;SDS011;33947;46.804;134.252;2023-02-01T21:43:04;212.77;;;64.32;;